Time;durP1;ratioP1;P1;durP2;ratioP2;P2;SDS_P1;SDS_P2;PMS_P1;PMS_P2;Temp;Humidity;BMP_temperature;BMP_pressure;BME280_temperature;BME280_humidity;BME280_pressure;Samples;Min_cycle;Max_cycle;Signal;HPM_P1;HPM_P2
2021/08/28 00:01:34;;;;;;;5.97;5.20;;;10.70;99.90;;;11.49;59.77;94278.19;5036477;28;20236;-69
2021/08/28 00:04:02;;;;;;;5.50;4.93;;;10.50;99.90;;;11.35;60.37;94278.94;5018355;28;20211;-69
2021/08/28 00:06:28;;;;;;;7.20;4.77;;;10.30;99.90;;;11.16;60.14;94279.41;4997320;28;20201;-69
2021/08/28 00:08:54;;;;;;;7.33;5.07;;;9.90;99.90;;;11.05;60.19;94279.59;5021007;28;20214;-70
2021/08/28 00:11:22;;;;;;;5.30;4.80;;;10.00;99.90;;;11.02;60.04;94286.22;5008832;28;20211;-69
2021/08/28 00:13:48;;;;;;;6.33;5.13;;;9.70;99.90;;;10.95;60.41;94290.13;5020299;28;20217;-70
2021/08/28 00:16:14;;;;;;;7.93;5.47;;;10.00;99.90;;;11.07;60.34;94290.75;5025586;28;20198;-70
2021/08/28 00:18:40;;;;;;;6.27;5.00;;;10.10;99.90;;;11.11;60.64;94289.97;5020855;28;20207;-69
2021/08/28 00:21:09;;;;;;;5.63;4.67;;;10.20;99.90;;;11.12;60.62;94288.91;5027329;28;20214;-70
2021/08/28 00:23:35;;;;;;;6.97;5.30;;;10.00;99.90;;;11.07;60.76;94273.00;5019633;28;20196;-69
2021/08/28 00:26:02;;;;;;;6.67;5.10;;;10.40;99.90;;;11.03;60.46;94284.38;5010611;28;20224;-69
2021/08/28 00:28:28;;;;;;;7.83;5.30;;;10.30;99.90;;;10.95;61.12;94282.19;5020321;28;20671;-69
2021/08/28 00:30:56;;;;;;;7.33;5.20;;;10.30;99.90;;;10.92;60.87;94274.75;5007517;28;20213;-70
2021/08/28 00:33:22;;;;;;;7.57;5.13;;;;;;;11.04;61.20;94286.78;5017409;28;20831;-70
2021/08/28 00:35:48;;;;;;;6.60;5.00;;;9.90;99.90;;;11.02;61.13;94269.50;5021339;28;20981;-70
2021/08/28 00:38:16;;;;;;;5.93;5.23;;;10.10;99.90;;;11.02;61.24;94272.94;5021188;28;20281;-69
2021/08/28 00:40:42;;;;;;;7.93;5.40;;;9.80;99.90;;;10.96;61.30;94266.03;5008173;28;20713;-69
2021/08/28 00:43:09;;;;;;;7.77;5.20;;;9.90;99.90;;;10.96;61.14;94265.22;4992472;28;20279;-68
2021/08/28 00:45:36;;;;;;;7.30;5.40;;;9.90;99.90;;;10.93;61.00;94265.75;4994531;28;20207;-69
2021/08/28 00:48:05;;;;;;;6.03;5.40;;;9.80;99.90;;;10.96;61.55;94270.53;5020553;28;20226;-68
2021/08/28 00:50:34;;;;;;;6.40;5.50;;;9.90;99.90;;;10.91;61.81;94263.38;4996646;28;20203;-68
2021/08/28 00:53:10;;;;;;;6.07;5.43;;;9.90;99.90;;;10.93;61.67;94269.19;5019095;28;20186;-69
2021/08/28 00:55:44;;;;;;;6.47;4.67;;;9.80;99.90;;;10.86;61.85;94268.63;5019015;28;20195;-69
2021/08/28 00:58:22;;;;;;;5.63;5.03;;;9.70;99.90;;;10.79;61.82;94273.34;5007166;28;20645;-70
2021/08/28 01:00:57;;;;;;;6.13;4.77;;;9.60;99.90;;;10.77;61.85;94270.19;5008410;28;20206;-69
2021/08/28 01:03:26;;;;;;;7.63;4.60;;;9.70;99.90;;;10.74;62.04;94274.13;5001674;28;20210;-70
2021/08/28 01:06:07;;;;;;;5.27;4.70;;;9.40;99.90;;;10.79;62.13;94271.50;5016216;28;20204;-70
2021/08/28 01:08:46;;;;;;;6.70;5.77;;;9.20;99.90;;;10.84;62.12;94269.94;5004651;28;20217;-69
2021/08/28 01:11:38;;;;;;;4.60;4.10;;;9.60;99.90;;;10.82;62.20;94264.88;5007826;28;20183;-70
2021/08/28 01:14:14;;;;;;;8.03;4.80;;;9.90;99.90;;;10.76;62.25;94265.91;5020902;28;20283;-69
2021/08/28 01:16:54;;;;;;;5.23;4.57;;;9.60;99.90;;;10.70;62.15;94264.28;5023281;28;20218;-70
2021/08/28 01:19:36;;;;;;;8.37;5.13;;;9.40;99.90;;;10.56;62.17;94258.63;5009622;28;20299;-69
2021/08/28 01:22:07;;;;;;;6.80;5.30;;;8.60;99.90;;;10.47;62.24;94269.97;5024034;28;20203;-68
2021/08/28 01:24:39;;;;;;;7.30;5.00;;;9.80;99.90;;;10.60;62.63;94278.28;4998702;28;20256;-69
2021/08/28 01:27:30;;;;;;;5.97;5.27;;;9.50;99.90;;;10.57;62.83;94265.53;5010407;28;20207;-69
2021/08/28 01:30:00;;;;;;;6.47;4.50;;;9.30;99.90;;;10.60;62.45;94265.03;5020535;28;20233;-69
2021/08/28 01:32:28;;;;;;;5.13;4.63;;;9.60;99.90;;;10.55;62.63;94258.88;5023412;28;20274;-69
2021/08/28 01:34:56;;;;;;;6.33;4.60;;;9.90;99.90;;;10.48;62.58;94251.16;5019751;28;20200;-70
2021/08/28 01:37:22;;;;;;;6.33;4.73;;;9.60;99.90;;;10.43;62.69;94248.47;5025975;28;20584;-70
2021/08/28 01:39:50;;;;;;;6.40;4.73;;;9.50;99.90;;;10.40;62.76;94256.13;5025198;28;20686;-70
2021/08/28 01:42:18;;;;;;;5.33;4.57;;;9.50;99.90;;;10.36;62.58;94252.41;5011073;28;20242;-69
2021/08/28 01:44:47;;;;;;;6.27;5.30;;;9.50;99.90;;;10.35;62.98;94253.44;5025943;28;20223;-69
2021/08/28 01:47:16;;;;;;;7.43;4.90;;;9.20;99.90;;;10.30;62.95;94251.56;5024741;28;20206;-69
2021/08/28 01:49:45;;;;;;;5.73;5.17;;;8.20;99.90;;;10.23;63.16;94251.78;5021558;28;20209;-70
2021/08/28 01:52:14;;;;;;;6.80;5.30;;;9.50;99.90;;;10.23;63.02;94254.44;5024117;28;20625;-69
2021/08/28 01:54:40;;;;;;;6.40;5.23;;;9.40;99.90;;;10.21;63.12;94243.28;5024693;28;20257;-69
2021/08/28 01:57:09;;;;;;;6.70;5.17;;;9.10;99.90;;;10.21;63.30;94253.88;5009584;28;20193;-70
2021/08/28 01:59:35;;;;;;;7.40;5.10;;;9.20;99.90;;;10.13;63.25;94246.38;5024891;28;20214;-70
2021/08/28 02:02:03;;;;;;;6.43;5.83;;;9.20;99.90;;;10.05;63.63;94243.38;5023937;28;20191;-69
2021/08/28 02:04:29;;;;;;;11.30;5.67;;;8.90;99.90;;;9.94;63.47;94245.13;5024718;28;20278;-69
2021/08/28 02:07:09;;;;;;;7.53;5.93;;;9.50;99.90;;;9.88;63.39;94258.56;5027819;28;20243;-69
2021/08/28 02:10:03;;;;;;;8.67;6.13;;;9.80;99.90;;;9.81;63.64;94256.13;5008477;28;21008;-69
2021/08/28 02:12:40;;;;;;;10.17;6.77;;;8.60;99.90;;;9.73;63.75;94256.59;5026933;28;20337;-69
2021/08/28 02:15:30;;;;;;;8.97;6.67;;;8.50;99.90;;;9.70;63.54;94257.88;5021227;28;20693;-69
2021/08/28 02:18:24;;;;;;;8.70;6.80;;;8.80;99.90;;;9.72;63.65;94269.03;5006443;28;20190;-69
2021/08/28 02:20:58;;;;;;;6.87;6.17;;;7.60;99.90;;;9.71;63.89;94261.34;5041846;28;20303;-69
2021/08/28 02:23:43;;;;;;;9.30;6.90;;;8.50;99.90;;;9.64;64.00;94255.44;5024453;28;20185;-68
2021/08/28 02:26:19;;;;;;;10.50;6.70;;;8.60;99.90;;;9.64;64.15;94263.38;5025605;28;20204;-68
2021/08/28 02:29:04;;;;;;;9.43;6.63;;;8.50;99.90;;;9.63;63.93;94259.97;5022222;28;20232;-69
2021/08/28 02:31:41;;;;;;;8.87;6.80;;;9.40;99.90;;;9.62;63.56;94265.47;5018019;28;20202;-69
2021/08/28 02:34:09;;;;;;;9.10;7.17;;;8.40;99.90;;;9.57;64.55;94258.28;5007509;28;20244;-70
2021/08/28 02:36:39;;;;;;;11.40;7.27;;;8.20;99.90;;;9.55;64.51;94254.28;5026554;28;20196;-69
2021/08/28 02:39:11;;;;;;;11.37;7.87;;;8.80;99.90;;;9.55;64.14;94268.31;5022694;28;20195;-69
2021/08/28 02:41:38;;;;;;;13.80;8.20;;;8.70;99.90;;;9.59;64.42;94269.44;5004463;28;20199;-69
2021/08/28 02:44:15;;;;;;;11.80;8.40;;;8.20;99.90;;;9.59;64.61;94261.50;5023913;28;20213;-70
2021/08/28 02:46:43;;;;;;;13.57;8.27;;;8.60;99.90;;;9.61;64.59;94256.75;5000017;28;20190;-69
2021/08/28 02:49:16;;;;;;;12.27;8.37;;;8.30;99.90;;;9.70;64.85;94254.47;5016422;28;20223;-70
2021/08/28 02:51:45;;;;;;;9.00;7.07;;;8.50;99.90;;;9.64;64.95;94256.25;5014515;28;20701;-70
2021/08/28 02:54:13;;;;;;;11.13;6.97;;;8.40;99.90;;;9.55;64.51;94251.66;5022000;28;20196;-70
2021/08/28 02:56:45;;;;;;;6.90;6.13;;;8.60;99.90;;;9.55;64.68;94255.09;5008278;28;20328;-69
2021/08/28 02:59:11;;;;;;;10.30;6.13;;;8.70;99.90;;;9.55;65.01;94241.88;5021264;28;20246;-69
2021/08/28 03:01:38;;;;;;;9.23;6.90;;;8.30;99.90;;;9.48;64.84;94249.19;5001926;28;20205;-69
2021/08/28 03:04:06;;;;;;;10.17;6.40;;;8.40;99.90;;;9.49;64.93;94255.28;5010332;28;20828;-70
2021/08/28 03:06:34;;;;;;;9.60;6.87;;;8.40;99.90;;;9.48;65.03;94253.69;5008500;28;20265;-69
2021/08/28 03:09:00;;;;;;;11.80;6.80;;;8.50;99.90;;;9.43;65.49;94249.16;5009208;28;20296;-69
2021/08/28 03:11:26;;;;;;;15.13;7.93;;;8.20;99.90;;;9.42;65.16;94246.75;5002006;28;20524;-70
2021/08/28 03:13:52;;;;;;;8.47;7.20;;;8.50;99.90;;;9.42;65.06;94252.03;5008556;28;20219;-69
2021/08/28 03:16:21;;;;;;;9.40;6.80;;;8.90;99.90;;;9.43;65.11;94251.00;5010101;28;20306;-69
2021/08/28 03:18:51;;;;;;;8.90;6.40;;;8.00;99.90;;;9.42;65.26;94252.03;5018911;28;20644;-69
2021/08/28 03:21:21;;;;;;;9.97;6.13;;;8.30;99.90;;;9.37;65.70;94249.34;5017543;28;20691;-69
2021/08/28 03:23:49;;;;;;;11.20;6.30;;;8.80;99.90;;;9.39;65.37;94245.41;5019030;28;20181;-69
2021/08/28 03:26:20;;;;;;;8.10;6.03;;;8.10;99.90;;;9.42;65.64;94241.47;5018673;28;20600;-69
2021/08/28 03:28:48;;;;;;;9.10;6.50;;;8.60;99.90;;;9.36;65.44;94237.16;5022417;28;20246;-70
2021/08/28 03:31:18;;;;;;;9.77;6.90;;;8.00;99.90;;;9.27;65.74;94234.94;5007842;28;20209;-69
2021/08/28 03:33:48;;;;;;;9.63;6.97;;;8.40;99.90;;;9.22;66.09;94231.47;5019559;28;20208;-69
2021/08/28 03:36:17;;;;;;;9.43;6.67;;;8.20;99.90;;;9.21;65.42;94240.44;5022361;28;20550;-69
2021/08/28 03:38:44;;;;;;;11.27;6.50;;;8.00;99.90;;;9.24;65.88;94238.09;5024940;28;20196;-70
2021/08/28 03:41:10;;;;;;;9.27;6.23;;;8.30;99.90;;;9.18;65.66;94230.34;5022163;28;20208;-69
2021/08/28 03:43:39;;;;;;;7.43;6.43;;;8.30;99.90;;;9.05;66.02;94236.81;5014618;28;20700;-70
2021/08/28 03:46:05;;;;;;;8.67;6.07;;;7.70;99.90;;;8.96;66.24;94234.84;5019918;28;20676;-70
2021/08/28 03:48:32;;;;;;;11.00;6.63;;;8.80;99.90;;;8.97;65.98;94241.72;5005846;28;20297;-71
2021/08/28 03:51:02;;;;;;;7.33;5.63;;;8.40;99.90;;;8.95;66.30;94230.59;5021448;28;20264;-69
2021/08/28 03:53:28;;;;;;;8.70;6.33;;;7.60;99.90;;;9.05;66.33;94231.53;5018397;28;20198;-69
2021/08/28 03:55:59;;;;;;;6.87;5.93;;;8.00;99.90;;;9.04;66.60;94227.28;5021420;28;20700;-69
2021/08/28 03:58:26;;;;;;;7.90;5.83;;;8.10;99.90;;;9.06;66.26;94235.78;4994085;28;20236;-70
2021/08/28 04:00:53;;;;;;;8.00;6.60;;;8.20;99.90;;;9.06;66.50;94227.84;5007148;28;20203;-69
2021/08/28 04:03:19;;;;;;;8.03;6.43;;;8.20;99.90;;;9.01;66.61;94230.44;5016386;28;20739;-69
2021/08/28 04:05:49;;;;;;;9.17;6.27;;;8.10;99.90;;;9.00;66.32;94239.38;5020959;28;20559;-69
2021/08/28 04:08:15;;;;;;;9.30;6.63;;;7.80;99.90;;;9.03;66.21;94230.97;5016052;28;20232;-69
2021/08/28 04:10:43;;;;;;;10.97;6.80;;;8.10;99.90;;;9.06;66.63;94225.22;4992921;28;20560;-69
2021/08/28 04:13:09;;;;;;;9.57;5.60;;;7.60;99.90;;;9.04;66.33;94227.28;5020221;28;20206;-69
2021/08/28 04:15:38;;;;;;;8.77;6.17;;;7.90;99.90;;;9.01;66.86;94227.78;5006426;28;20327;-69
2021/08/28 04:18:04;;;;;;;12.80;6.50;;;7.90;99.90;;;9.00;66.83;94220.13;5006655;28;20694;-69
2021/08/28 04:20:32;;;;;;;8.80;6.60;;;7.80;99.90;;;8.98;66.63;94224.81;5021806;28;20204;-70
2021/08/28 04:22:58;;;;;;;7.30;5.73;;;8.20;99.90;;;9.07;66.75;94215.41;5025888;28;20247;-70
2021/08/28 04:25:25;;;;;;;10.53;6.73;;;8.10;99.90;;;9.05;66.93;94214.88;5034107;28;20227;-69
2021/08/28 04:27:52;;;;;;;8.70;7.10;;;8.00;99.90;;;9.06;67.20;94227.06;5016353;28;20252;-69
2021/08/28 04:30:18;;;;;;;11.57;6.87;;;7.10;99.90;;;9.03;67.07;94224.91;5022705;28;20200;-70
2021/08/28 04:32:44;;;;;;;9.30;7.47;;;7.60;99.90;;;8.97;67.24;94221.38;5010202;28;20224;-69
2021/08/28 04:35:10;;;;;;;10.10;6.73;;;7.70;99.90;;;9.02;67.23;94237.31;5019335;28;20189;-69
2021/08/28 04:37:39;;;;;;;9.17;7.00;;;8.10;99.90;;;9.02;66.86;94226.75;5017767;28;20201;-69
2021/08/28 04:40:06;;;;;;;11.03;7.57;;;7.90;99.90;;;9.07;67.14;94232.06;5008068;28;21037;-70
2021/08/28 04:42:32;;;;;;;7.67;6.83;;;8.00;99.90;;;9.10;67.35;94226.28;5016442;28;20219;-69
2021/08/28 04:44:58;;;;;;;8.07;5.90;;;8.30;99.90;;;9.15;67.52;94226.38;5020081;28;20218;-69
2021/08/28 04:47:24;;;;;;;7.60;6.00;;;8.50;99.90;;;9.17;67.39;94231.38;5014846;28;20650;-69
2021/08/28 04:49:50;;;;;;;9.60;6.30;;;8.00;99.90;;;9.32;67.29;94223.63;5026828;28;20318;-69
2021/08/28 04:52:16;;;;;;;8.20;5.80;;;11.10;99.90;;;9.37;67.59;94225.56;5027462;28;20644;-69
2021/08/28 04:54:42;;;;;;;8.57;6.30;;;8.20;99.90;;;9.40;67.53;94231.13;5025025;28;20198;-69
2021/08/28 04:57:08;;;;;;;9.13;6.27;;;8.70;99.90;;;9.46;67.54;94230.16;5024084;28;20255;-69
2021/08/28 04:59:34;;;;;;;7.47;5.87;;;8.50;99.90;;;9.56;67.55;94243.47;5042065;28;20269;-68
2021/08/28 05:02:04;;;;;;;8.37;6.00;;;8.80;99.90;;;9.71;67.77;94248.09;5003019;28;20196;-69
2021/08/28 05:04:30;;;;;;;7.33;5.43;;;8.00;99.90;;;9.85;67.88;94257.25;5027154;28;20194;-69
2021/08/28 05:06:57;;;;;;;11.47;6.60;;;8.90;99.90;;;10.00;67.86;94246.00;5011517;28;20203;-69
2021/08/28 05:09:23;;;;;;;9.10;6.53;;;9.10;99.90;;;10.06;67.97;94244.97;5021523;28;20717;-69
2021/08/28 05:11:51;;;;;;;8.47;6.17;;;9.10;99.90;;;10.16;68.05;94242.44;5017987;28;20223;-70
2021/08/28 05:14:19;;;;;;;6.63;6.03;;;9.30;99.90;;;10.29;68.03;94249.97;5024110;28;20187;-68
2021/08/28 05:16:47;;;;;;;6.13;5.50;;;9.40;99.90;;;10.46;68.20;94257.78;5003465;28;20581;-69
2021/08/28 05:19:13;;;;;;;7.40;5.47;;;8.90;99.90;;;10.43;68.19;94251.13;5020828;28;20207;-70
2021/08/28 05:21:39;;;;;;;6.43;4.90;;;9.00;99.90;;;10.50;68.24;94251.72;5007166;28;21763;-69
2021/08/28 05:24:05;;;;;;;6.37;4.93;;;9.60;99.90;;;10.55;68.19;94251.72;5018225;28;20243;-69
2021/08/28 05:26:33;;;;;;;6.60;4.83;;;9.90;99.90;;;10.67;68.24;94251.56;5021498;28;20278;-69
2021/08/28 05:28:59;;;;;;;6.43;4.23;;;9.80;99.90;;;10.81;68.26;94245.53;5004651;28;20227;-68
2021/08/28 05:31:25;;;;;;;5.80;4.97;;;10.00;99.90;;;10.86;68.25;94247.41;4998281;28;20306;-68
2021/08/28 05:33:54;;;;;;;5.17;4.67;;;;;;;10.92;68.23;94261.50;5022224;28;20203;-70
2021/08/28 05:36:20;;;;;;;6.03;5.10;;;10.10;99.90;;;11.00;68.65;94253.06;5016129;28;20246;-68
2021/08/28 05:38:48;;;;;;;6.27;5.10;;;10.00;99.90;;;11.05;68.45;94261.03;5021702;28;20203;-68
2021/08/28 05:41:14;;;;;;;6.13;5.37;;;10.00;99.90;;;11.02;68.81;94251.72;5017237;28;21013;-69
2021/08/28 05:43:41;;;;;;;6.00;4.90;;;10.30;99.90;;;11.10;68.78;94253.09;5025529;28;20242;-69
2021/08/28 05:46:07;;;;;;;5.30;4.80;;;10.20;99.90;;;11.14;68.61;94254.19;5017419;28;20212;-68
2021/08/28 05:48:32;;;;;;;5.13;4.40;;;10.20;99.90;;;11.18;68.79;94256.03;5019743;28;20246;-69
2021/08/28 05:50:58;;;;;;;8.83;5.77;;;10.10;99.90;;;11.26;68.88;94262.72;5025071;28;20212;-68
2021/08/28 05:53:27;;;;;;;5.03;4.50;;;10.40;99.90;;;11.33;68.70;94264.09;5037914;28;20193;-68
2021/08/28 05:55:53;;;;;;;7.07;4.97;;;10.40;99.90;;;11.57;68.84;94282.22;5024423;28;20194;-69
2021/08/28 05:58:18;;;;;;;6.07;5.33;;;10.50;99.90;;;11.77;68.87;94275.13;5023006;28;20225;-68
2021/08/28 06:00:44;;;;;;;7.47;5.23;;;11.00;99.90;;;11.90;68.94;94273.81;5022929;28;20272;-68
2021/08/28 06:03:13;;;;;;;6.27;4.00;;;10.70;99.90;;;11.99;69.31;94280.19;5019723;28;20202;-69
2021/08/28 06:05:39;;;;;;;5.77;4.40;;;10.90;99.90;;;12.23;69.02;94291.13;5021860;28;20197;-68
2021/08/28 06:08:07;;;;;;;6.93;3.80;;;11.40;99.90;;;12.38;68.90;94290.34;5018362;28;20203;-68
2021/08/28 06:10:33;;;;;;;5.67;3.93;;;11.60;99.90;;;12.42;69.50;94280.78;5018026;28;20195;-69
2021/08/28 06:13:01;;;;;;;6.90;3.97;;;11.50;99.90;;;12.57;69.42;94294.06;5004994;28;20200;-68
2021/08/28 06:15:29;;;;;;;5.63;4.27;;;;;;;12.64;69.55;94290.06;5006195;28;20203;-68
2021/08/28 06:17:55;;;;;;;5.93;4.00;;;10.60;99.90;;;12.74;69.48;94279.44;5020964;28;20539;-68
2021/08/28 06:20:24;;;;;;;5.70;4.10;;;11.50;99.90;;;12.76;69.36;94276.50;4992661;28;20237;-68
2021/08/28 06:22:50;;;;;;;5.80;3.93;;;12.00;99.90;;;12.94;69.34;94273.28;5022475;28;20785;-68
2021/08/28 06:25:16;;;;;;;4.30;3.90;;;11.80;99.90;;;13.12;69.45;94274.59;5022056;28;20208;-68
2021/08/28 06:27:42;;;;;;;4.20;3.80;;;12.30;99.90;;;13.22;69.47;94267.38;5017835;28;20231;-68
2021/08/28 06:30:10;;;;;;;4.23;3.57;;;12.60;99.90;;;13.31;69.43;94268.41;5018732;28;20222;-69
2021/08/28 06:32:37;;;;;;;4.00;3.60;;;12.70;99.90;;;13.53;69.54;94276.03;5002581;28;20211;-69
2021/08/28 06:35:06;;;;;;;4.23;3.40;;;12.50;99.90;;;14.04;69.57;94302.41;5021521;28;20188;-68
2021/08/28 06:37:32;;;;;;;4.83;3.50;;;12.80;99.90;;;14.54;69.21;94280.75;5020281;28;20507;-68
2021/08/28 06:39:58;;;;;;;3.83;3.10;;;14.00;99.90;;;14.74;69.14;94271.81;5007503;28;20354;-68
2021/08/28 06:42:24;;;;;;;3.67;3.33;;;14.00;99.90;;;14.87;69.33;94281.84;5023059;28;20200;-68
2021/08/28 06:44:50;;;;;;;3.40;3.10;;;14.10;99.90;;;14.91;69.17;94285.50;5004157;28;20222;-68
2021/08/28 06:47:16;;;;;;;3.30;2.87;;;14.70;99.90;;;15.10;69.23;94283.75;5021923;28;20278;-69
2021/08/28 06:49:43;;;;;;;3.50;3.20;;;14.10;99.90;;;15.69;69.27;94314.63;5018786;28;20236;-69
2021/08/28 06:52:09;;;;;;;3.03;2.73;;;15.30;99.90;;;16.81;68.98;94346.81;5017476;28;20284;-70
2021/08/28 06:54:37;;;;;;;4.67;2.70;;;15.40;99.90;;;18.50;68.85;94307.38;5021166;28;20213;-69
2021/08/28 06:57:08;;;;;;;3.10;2.60;;;18.40;99.90;;;19.35;68.78;94282.19;5023162;28;20196;-69
2021/08/28 06:59:34;;;;;;;2.70;2.50;;;18.70;99.90;;;19.41;68.81;94276.38;5020105;28;20625;-68
2021/08/28 07:02:00;;;;;;;3.27;2.57;;;18.30;99.90;;;19.15;68.91;94251.25;5022039;28;20196;-69
2021/08/28 07:04:27;;;;;;;2.70;2.40;;;;;;;18.57;68.62;94231.81;5004738;28;20207;-69
2021/08/28 07:06:55;;;;;;;3.70;2.90;;;18.90;99.90;;;18.14;68.45;94269.78;5024692;28;20289;-69
2021/08/28 07:09:21;;;;;;;3.63;3.00;;;18.10;99.90;;;17.82;68.59;94245.84;5004571;28;20210;-69
2021/08/28 07:11:48;;;;;;;3.30;3.00;;;17.90;99.90;;;17.26;68.09;94259.50;4987259;28;20537;-69
2021/08/28 07:14:16;;;;;;;3.93;3.20;;;17.30;99.90;;;17.06;68.00;94255.31;5020102;28;20646;-68
2021/08/28 07:16:41;;;;;;;3.60;3.30;;;17.00;99.90;;;16.71;68.05;94261.31;5020719;28;20197;-69
2021/08/28 07:19:10;;;;;;;4.73;3.67;;;16.60;99.90;;;16.18;68.02;94250.09;5020645;28;20192;-69
2021/08/28 07:21:41;;;;;;;5.03;3.40;;;15.50;99.90;;;16.11;67.65;94265.69;5015414;28;20247;-69
2021/08/28 07:24:07;;;;;;;4.90;3.50;;;14.80;99.90;;;16.04;67.83;94266.06;5020583;28;20216;-69
2021/08/28 07:26:33;;;;;;;3.67;3.37;;;15.70;99.90;;;16.06;68.09;94271.09;5019939;28;20258;-68
2021/08/28 07:29:01;;;;;;;3.97;3.60;;;15.20;99.90;;;15.99;67.84;94271.47;5005234;28;20250;-69
2021/08/28 07:31:28;;;;;;;3.80;3.50;;;15.50;99.90;;;15.87;67.92;94279.13;5017657;28;20208;-70
2021/08/28 07:33:56;;;;;;;4.73;3.57;;;15.50;99.90;;;15.80;67.94;94266.13;5019470;28;20196;-69
2021/08/28 07:36:22;;;;;;;5.07;4.00;;;15.20;99.90;;;15.77;67.58;94266.69;5019754;28;20227;-69
2021/08/28 07:38:50;;;;;;;6.20;4.60;;;15.10;99.90;;;15.79;67.67;94280.56;5019749;28;20610;-68
2021/08/28 07:41:18;;;;;;;3.80;3.50;;;15.10;99.90;;;15.73;67.55;94286.25;5019647;28;20196;-69
2021/08/28 07:43:44;;;;;;;4.30;3.90;;;15.00;99.90;;;15.56;67.60;94281.38;5019639;28;20188;-68
2021/08/28 07:46:10;;;;;;;6.03;3.67;;;15.70;99.90;;;15.53;67.69;94276.59;5021427;28;20647;-68
2021/08/28 07:48:36;;;;;;;5.50;4.00;;;14.80;99.90;;;15.35;67.56;94280.78;5006362;28;20274;-68
2021/08/28 07:51:01;;;;;;;5.03;3.90;;;15.60;99.90;;;15.34;67.70;94286.44;5018522;28;20264;-69
2021/08/28 07:53:28;;;;;;;4.80;3.87;;;14.20;99.90;;;15.35;67.62;94278.09;5020504;28;20184;-69
2021/08/28 07:55:54;;;;;;;7.33;4.40;;;14.60;99.90;;;15.21;67.41;94279.88;5017663;28;20730;-67
2021/08/28 07:58:20;;;;;;;6.00;4.17;;;14.50;99.90;;;15.02;67.41;94276.34;5021407;28;20196;-68
2021/08/28 08:00:46;;;;;;;7.90;4.70;;;14.70;99.90;;;15.05;67.58;94283.78;5006501;28;20211;-67
2021/08/28 08:03:12;;;;;;;6.63;4.00;;;18.00;99.90;;;15.02;67.42;94284.34;5018049;28;20369;-68
2021/08/28 08:05:38;;;;;;;4.90;4.47;;;14.50;99.90;;;15.02;67.37;94283.53;5005305;28;20200;-67
2021/08/28 08:08:08;;;;;;;4.20;3.80;;;14.40;99.90;;;15.16;67.46;94295.94;5022806;28;20200;-68
2021/08/28 08:10:36;;;;;;;6.00;4.57;;;14.20;99.90;;;15.23;67.42;94284.94;5006393;28;20195;-68
2021/08/28 08:13:04;;;;;;;6.73;4.13;;;15.10;99.90;;;15.29;67.38;94281.13;5018628;28;20664;-68
2021/08/28 08:15:32;;;;;;;4.73;3.77;;;14.40;99.90;;;15.38;67.65;94284.75;5020475;28;20277;-68
2021/08/28 08:18:00;;;;;;;4.17;3.77;;;14.80;99.90;;;15.43;67.59;94289.25;5006664;28;20201;-68
2021/08/28 08:20:27;;;;;;;7.27;4.20;;;15.00;99.90;;;15.63;67.56;94302.41;5018692;28;20686;-69
2021/08/28 08:22:54;;;;;;;4.97;4.50;;;14.60;99.90;;;15.76;67.61;94299.84;5023208;28;20195;-67
2021/08/28 08:25:22;;;;;;;5.87;4.53;;;15.10;99.90;;;15.72;67.57;94281.97;5023229;28;20201;-67
2021/08/28 08:27:48;;;;;;;4.90;4.50;;;15.10;99.90;;;15.81;67.13;94293.63;5005561;28;20652;-67
2021/08/28 08:30:14;;;;;;;4.73;3.93;;;14.80;99.90;;;15.87;67.48;94295.16;5022638;28;20271;-68
2021/08/28 08:32:40;;;;;;;5.27;4.23;;;14.40;99.90;;;16.07;67.15;94310.94;4989515;28;20334;-67
2021/08/28 08:35:07;;;;;;;6.37;3.70;;;15.80;99.90;;;16.18;67.49;94301.66;5015865;28;20193;-67
2021/08/28 08:37:33;;;;;;;5.03;4.17;;;15.60;99.90;;;16.22;67.23;94299.22;5017180;28;20299;-68
2021/08/28 08:40:02;;;;;;;6.17;4.03;;;;;;;16.21;67.41;94301.13;5019885;28;20288;-67
2021/08/28 08:42:28;;;;;;;5.67;4.23;;;15.30;99.90;;;16.34;67.24;94299.59;5004365;28;20212;-67
2021/08/28 08:44:56;;;;;;;5.97;4.10;;;15.70;99.90;;;16.27;67.26;94299.97;5018050;28;20204;-68
2021/08/28 08:47:22;;;;;;;7.27;4.20;;;15.30;99.90;;;16.31;67.08;94308.19;5020145;28;21033;-67
2021/08/28 08:49:52;;;;;;;4.80;4.30;;;15.30;99.90;;;16.33;67.21;94312.16;5012634;28;20252;-67
2021/08/28 08:52:22;;;;;;;6.17;4.03;;;15.50;99.90;;;16.41;67.12;94300.81;5014880;28;20233;-67
2021/08/28 08:54:51;;;;;;;5.37;4.77;;;15.90;99.90;;;16.32;67.18;94305.22;5016331;28;20227;-68
2021/08/28 08:57:18;;;;;;;6.30;4.33;;;15.50;99.90;;;16.23;66.94;94308.84;5022106;28;20201;-68
2021/08/28 08:59:44;;;;;;;5.90;4.20;;;15.40;99.90;;;16.18;66.65;94317.72;5021598;28;20200;-68
2021/08/28 09:02:10;;;;;;;4.93;4.40;;;15.30;99.90;;;16.28;66.88;94306.88;5023317;28;20215;-68
2021/08/28 09:04:38;;;;;;;4.57;4.00;;;15.40;99.90;;;16.59;67.12;94319.84;5002619;28;20205;-67
2021/08/28 09:07:06;;;;;;;5.20;3.90;;;15.80;99.90;;;16.74;67.14;94316.94;5013003;28;20214;-67
2021/08/28 09:09:35;;;;;;;4.37;4.00;;;15.80;99.90;;;16.81;66.87;94318.16;4998892;28;20773;-68
2021/08/28 09:12:05;;;;;;;5.57;3.90;;;15.90;99.90;;;16.88;67.07;94307.06;5013265;28;20515;-68
2021/08/28 09:14:31;;;;;;;5.00;3.80;;;16.00;99.90;;;16.85;66.69;94304.97;5021363;28;20197;-68
2021/08/28 09:17:22;;;;;;;4.87;4.07;;;16.00;99.90;;;16.90;66.91;94315.59;5024434;28;20197;-68
2021/08/28 09:19:50;;;;;;;4.53;3.73;;;16.00;99.90;;;16.78;66.86;94307.25;5005282;28;20197;-67
2021/08/28 09:22:25;;;;;;;5.20;3.53;;;15.90;99.90;;;16.81;66.66;94309.31;5013531;28;20196;-67
2021/08/28 09:24:52;;;;;;;4.50;3.43;;;16.00;99.90;;;16.74;66.57;94308.91;5020692;28;20200;-67
2021/08/28 09:27:46;;;;;;;4.57;3.33;;;15.80;99.90;;;16.80;66.68;94321.13;5024421;28;20756;-68
2021/08/28 09:30:44;;;;;;;4.80;3.10;;;16.10;99.90;;;16.88;66.44;94333.84;5021220;28;20706;-69
2021/08/28 09:33:20;;;;;;;5.57;3.07;;;16.10;99.90;;;16.95;66.53;94312.84;5018466;28;20588;-68
2021/08/28 09:35:49;;;;;;;5.23;3.20;;;16.00;99.90;;;17.06;66.43;94310.75;5025411;28;20182;-67
2021/08/28 09:38:19;;;;;;;5.33;4.43;;;16.10;99.90;;;17.21;66.27;94318.56;5024658;28;20191;-67
2021/08/28 09:40:57;;;;;;;3.83;3.13;;;16.30;99.90;;;17.41;66.49;94329.69;5022274;28;20185;-67
2021/08/28 09:43:26;;;;;;;4.83;3.60;;;16.70;99.90;;;17.64;66.19;94333.31;5019627;28;20193;-68
2021/08/28 09:45:54;;;;;;;3.23;2.83;;;16.70;99.90;;;18.12;66.32;94340.94;5021548;28;20584;-68
2021/08/28 09:48:32;;;;;;;5.27;3.40;;;17.70;99.90;;;18.91;66.25;94358.25;5010074;28;20223;-68
2021/08/28 09:51:00;;;;;;;4.27;3.00;;;18.40;99.90;;;19.49;65.96;94341.28;5019800;28;20198;-67
2021/08/28 09:53:27;;;;;;;4.13;3.37;;;18.50;99.90;;;20.16;66.07;94331.88;5022278;28;20854;-67
2021/08/28 09:56:03;;;;;;;3.87;3.13;;;19.20;99.90;;;20.39;66.01;94327.97;5010681;28;20190;-68
2021/08/28 09:58:32;;;;;;;3.50;3.20;;;19.50;99.90;;;21.65;65.58;94381.69;5021559;28;20277;-69
2021/08/28 10:01:05;;;;;;;4.93;3.00;;;20.50;99.90;;;22.42;65.47;94327.38;5020938;28;20254;-68
2021/08/28 10:03:36;;;;;;;5.83;3.13;;;21.60;99.90;;;22.75;65.22;94295.06;5022891;28;20601;-67
2021/08/28 10:06:06;;;;;;;4.30;2.70;;;22.10;99.90;;;23.12;64.98;94331.94;5012216;28;20208;-69
2021/08/28 10:08:32;;;;;;;3.40;3.07;;;22.60;99.90;;;23.86;64.63;94350.00;5024738;28;20250;-69
2021/08/28 10:11:01;;;;;;;3.83;2.60;;;24.90;99.90;;;25.19;64.39;94344.47;5018288;28;20195;-68
2021/08/28 10:13:28;;;;;;;2.90;2.60;;;26.70;99.90;;;25.75;64.29;94317.31;5006383;28;20212;-68
2021/08/28 10:15:59;;;;;;;3.70;2.77;;;25.90;99.90;;;25.81;63.78;94284.09;5005931;28;20189;-68
2021/08/28 10:18:26;;;;;;;4.23;2.73;;;26.00;99.90;;;25.79;63.93;94280.13;5025388;28;21651;-68
2021/08/28 10:20:59;;;;;;;4.67;2.33;;;26.40;99.90;;;26.37;63.11;94371.69;5025967;28;20196;-68
2021/08/28 10:23:30;;;;;;;4.60;2.20;;;26.60;99.90;;;26.69;63.08;94306.38;5007060;28;20225;-68
2021/08/28 10:25:57;;;;;;;2.20;2.00;;;27.20;99.90;;;26.12;62.93;94267.00;5014288;28;20334;-68
2021/08/28 10:28:23;;;;;;;3.20;2.50;;;26.90;99.40;;;25.59;62.76;94294.75;5024678;28;20220;-69
2021/08/28 10:30:49;;;;;;;2.87;2.07;;;26.50;99.60;;;26.04;62.35;94341.31;5023404;28;20209;-68
2021/08/28 10:33:16;;;;;;;3.47;2.50;;;26.60;99.20;;;26.85;61.91;94318.00;5020829;28;20193;-69